sensor_id;sensor_type;location;lat;lon;timestamp;P1;durP1;ratioP1;P2;durP2;ratioP2
10110;SDS011;5095;49.796;9.934;2023-02-19T00:00:06;5.63;;;3.90;;
10110;SDS011;5095;49.796;9.934;2023-02-19T00:02:33;4.33;;;3.30;;
10110;SDS011;5095;49.796;9.934;2023-02-19T00:04:59;5.07;;;3.83;;
10110;SDS011;5095;49.796;9.934;2023-02-19T00:07:25;4.97;;;3.83;;
10110;SDS011;5095;49.796;9.934;2023-02-19T00:09:51;5.93;;;3.80;;
10110;SDS011;5095;49.796;9.934;2023-02-19T00:12:17;6.03;;;3.97;;
10110;SDS011;5095;49.796;9.934;2023-02-19T00:14:43;5.67;;;3.43;;
10110;SDS011;5095;49.796;9.934;2023-02-19T00:17:09;5.60;;;3.47;;
10110;SDS011;5095;49.796;9.934;2023-02-19T00:19:35;4.07;;;3.60;;
10110;SDS011;5095;49.796;9.934;2023-02-19T00:22:01;5.20;;;3.37;;
10110;SDS011;5095;49.796;9.934;2023-02-19T00:24:27;7.20;;;3.87;;
10110;SDS011;5095;49.796;9.934;2023-02-19T00:26:53;5.37;;;3.80;;
10110;SDS011;5095;49.796;9.934;2023-02-19T00:29:19;6.33;;;3.37;;
10110;SDS011;5095;49.796;9.934;2023-02-19T00:31:46;4.83;;;3.57;;
10110;SDS011;5095;49.796;9.934;2023-02-19T00:34:12;4.93;;;3.87;;
10110;SDS011;5095;49.796;9.934;2023-02-19T00:36:39;4.63;;;3.70;;
10110;SDS011;5095;49.796;9.934;2023-02-19T00:39:06;4.83;;;4.20;;
10110;SDS011;5095;49.796;9.934;2023-02-19T00:41:32;5.03;;;3.60;;
10110;SDS011;5095;49.796;9.934;2023-02-19T00:43:59;4.53;;;3.67;;
10110;SDS011;5095;49.796;9.934;2023-02-19T00:46:27;4.40;;;3.60;;
10110;SDS011;5095;49.796;9.934;2023-02-19T00:48:53;5.77;;;4.17;;
10110;SDS011;5095;49.796;9.934;2023-02-19T00:51:20;4.30;;;3.70;;
10110;SDS011;5095;49.796;9.934;2023-02-19T00:53:47;6.10;;;3.90;;
10110;SDS011;5095;49.796;9.934;2023-02-19T00:56:13;5.90;;;4.07;;
10110;SDS011;5095;49.796;9.934;2023-02-19T00:58:39;5.67;;;4.10;;
10110;SDS011;5095;49.796;9.934;2023-02-19T01:01:05;5.50;;;4.10;;
10110;SDS011;5095;49.796;9.934;2023-02-19T01:03:32;6.50;;;4.73;;
10110;SDS011;5095;49.796;9.934;2023-02-19T01:05:58;7.23;;;4.00;;
10110;SDS011;5095;49.796;9.934;2023-02-19T01:08:24;4.87;;;4.10;;
10110;SDS011;5095;49.796;9.934;2023-02-19T01:10:50;11.37;;;4.63;;
10110;SDS011;5095;49.796;9.934;2023-02-19T01:13:16;7.10;;;4.33;;
10110;SDS011;5095;49.796;9.934;2023-02-19T01:15:42;4.90;;;3.90;;
10110;SDS011;5095;49.796;9.934;2023-02-19T01:18:09;5.73;;;5.13;;
10110;SDS011;5095;49.796;9.934;2023-02-19T01:20:36;8.23;;;5.10;;
10110;SDS011;5095;49.796;9.934;2023-02-19T01:23:03;5.83;;;4.90;;
10110;SDS011;5095;49.796;9.934;2023-02-19T01:25:29;6.23;;;4.47;;
10110;SDS011;5095;49.796;9.934;2023-02-19T01:27:55;6.07;;;4.37;;
10110;SDS011;5095;49.796;9.934;2023-02-19T01:30:21;5.80;;;5.07;;
10110;SDS011;5095;49.796;9.934;2023-02-19T01:32:47;6.57;;;4.23;;
10110;SDS011;5095;49.796;9.934;2023-02-19T01:35:13;5.27;;;4.57;;
10110;SDS011;5095;49.796;9.934;2023-02-19T01:37:39;5.20;;;4.30;;
10110;SDS011;5095;49.796;9.934;2023-02-19T01:40:05;6.43;;;4.30;;
10110;SDS011;5095;49.796;9.934;2023-02-19T01:42:31;6.40;;;4.33;;
10110;SDS011;5095;49.796;9.934;2023-02-19T01:45:20;6.20;;;4.87;;
10110;SDS011;5095;49.796;9.934;2023-02-19T01:47:44;7.90;;;4.47;;
10110;SDS011;5095;49.796;9.934;2023-02-19T01:50:10;7.13;;;4.63;;
10110;SDS011;5095;49.796;9.934;2023-02-19T01:52:36;7.30;;;4.60;;
10110;SDS011;5095;49.796;9.934;2023-02-19T01:55:03;6.17;;;4.50;;
10110;SDS011;5095;49.796;9.934;2023-02-19T01:57:33;5.83;;;4.40;;
10110;SDS011;5095;49.796;9.934;2023-02-19T02:00:10;5.90;;;4.53;;
10110;SDS011;5095;49.796;9.934;2023-02-19T02:02:37;4.87;;;4.10;;
10110;SDS011;5095;49.796;9.934;2023-02-19T02:05:04;6.77;;;4.23;;
10110;SDS011;5095;49.796;9.934;2023-02-19T02:07:31;5.90;;;4.13;;
10110;SDS011;5095;49.796;9.934;2023-02-19T02:10:16;5.17;;;4.03;;
10110;SDS011;5095;49.796;9.934;2023-02-19T02:12:50;4.30;;;3.90;;
10110;SDS011;5095;49.796;9.934;2023-02-19T02:15:16;5.97;;;3.50;;
10110;SDS011;5095;49.796;9.934;2023-02-19T02:17:50;4.83;;;3.87;;
10110;SDS011;5095;49.796;9.934;2023-02-19T02:23:11;6.33;;;3.77;;
10110;SDS011;5095;49.796;9.934;2023-02-19T02:25:51;4.60;;;3.63;;
10110;SDS011;5095;49.796;9.934;2023-02-19T02:29:08;5.07;;;3.80;;
10110;SDS011;5095;49.796;9.934;2023-02-19T02:31:17;5.27;;;3.57;;
10110;SDS011;5095;49.796;9.934;2023-02-19T02:38:42;5.57;;;3.60;;
10110;SDS011;5095;49.796;9.934;2023-02-19T02:41:09;4.63;;;3.50;;
10110;SDS011;5095;49.796;9.934;2023-02-19T02:43:36;5.77;;;3.80;;
10110;SDS011;5095;49.796;9.934;2023-02-19T02:46:02;3.40;;;3.10;;
10110;SDS011;5095;49.796;9.934;2023-02-19T02:51:01;4.77;;;3.33;;
10110;SDS011;5095;49.796;9.934;2023-02-19T02:53:32;5.10;;;3.43;;
10110;SDS011;5095;49.796;9.934;2023-02-19T02:56:19;3.60;;;3.30;;
10110;SDS011;5095;49.796;9.934;2023-02-19T02:58:45;7.00;;;4.17;;
10110;SDS011;5095;49.796;9.934;2023-02-19T03:01:14;4.50;;;3.23;;
10110;SDS011;5095;49.796;9.934;2023-02-19T03:04:01;4.00;;;2.97;;
10110;SDS011;5095;49.796;9.934;2023-02-19T03:06:28;4.63;;;2.90;;
10110;SDS011;5095;49.796;9.934;2023-02-19T03:09:06;4.10;;;3.00;;
10110;SDS011;5095;49.796;9.934;2023-02-19T03:11:33;4.43;;;2.93;;
10110;SDS011;5095;49.796;9.934;2023-02-19T03:14:21;3.10;;;2.80;;
10110;SDS011;5095;49.796;9.934;2023-02-19T03:17:15;5.10;;;3.00;;
10110;SDS011;5095;49.796;9.934;2023-02-19T03:20:02;3.47;;;2.73;;
10110;SDS011;5095;49.796;9.934;2023-02-19T03:22:30;6.60;;;2.70;;
10110;SDS011;5095;49.796;9.934;2023-02-19T03:25:05;2.97;;;2.43;;
10110;SDS011;5095;49.796;9.934;2023-02-19T03:27:50;3.23;;;2.60;;
10110;SDS011;5095;49.796;9.934;2023-02-19T03:30:18;3.33;;;2.40;;
10110;SDS011;5095;49.796;9.934;2023-02-19T03:32:48;3.90;;;2.40;;
10110;SDS011;5095;49.796;9.934;2023-02-19T03:35:17;4.50;;;2.97;;
10110;SDS011;5095;49.796;9.934;2023-02-19T03:40:20;3.07;;;2.50;;
10110;SDS011;5095;49.796;9.934;2023-02-19T03:42:53;3.77;;;2.67;;
10110;SDS011;5095;49.796;9.934;2023-02-19T03:47:56;5.40;;;2.73;;
10110;SDS011;5095;49.796;9.934;2023-02-19T03:51:10;2.73;;;2.50;;
10110;SDS011;5095;49.796;9.934;2023-02-19T03:53:21;3.47;;;2.50;;
10110;SDS011;5095;49.796;9.934;2023-02-19T04:01:03;3.40;;;2.67;;
10110;SDS011;5095;49.796;9.934;2023-02-19T04:03:40;4.10;;;2.70;;
10110;SDS011;5095;49.796;9.934;2023-02-19T04:06:09;5.37;;;2.60;;
10110;SDS011;5095;49.796;9.934;2023-02-19T04:08:36;6.30;;;3.20;;
10110;SDS011;5095;49.796;9.934;2023-02-19T04:11:03;3.10;;;2.80;;
10110;SDS011;5095;49.796;9.934;2023-02-19T04:13:40;3.93;;;2.93;;
10110;SDS011;5095;49.796;9.934;2023-02-19T04:16:08;3.43;;;2.87;;
10110;SDS011;5095;49.796;9.934;2023-02-19T04:18:38;4.23;;;2.67;;
10110;SDS011;5095;49.796;9.934;2023-02-19T04:21:05;2.90;;;2.50;;
10110;SDS011;5095;49.796;9.934;2023-02-19T04:23:34;3.63;;;2.80;;
10110;SDS011;5095;49.796;9.934;2023-02-19T04:26:01;3.27;;;2.67;;
10110;SDS011;5095;49.796;9.934;2023-02-19T04:28:27;3.63;;;2.70;;
10110;SDS011;5095;49.796;9.934;2023-02-19T04:30:54;4.70;;;2.70;;
10110;SDS011;5095;49.796;9.934;2023-02-19T04:33:20;3.53;;;2.60;;
10110;SDS011;5095;49.796;9.934;2023-02-19T04:35:46;2.87;;;2.40;;
10110;SDS011;5095;49.796;9.934;2023-02-19T04:38:12;3.03;;;2.53;;
10110;SDS011;5095;49.796;9.934;2023-02-19T04:40:41;2.90;;;2.60;;
10110;SDS011;5095;49.796;9.934;2023-02-19T04:43:07;2.50;;;2.30;;
10110;SDS011;5095;49.796;9.934;2023-02-19T04:45:36;3.57;;;2.27;;
10110;SDS011;5095;49.796;9.934;2023-02-19T04:48:02;5.57;;;2.57;;
10110;SDS011;5095;49.796;9.934;2023-02-19T04:50:31;3.27;;;2.23;;
10110;SDS011;5095;49.796;9.934;2023-02-19T04:52:57;2.60;;;2.37;;
10110;SDS011;5095;49.796;9.934;2023-02-19T04:55:23;2.00;;;1.57;;
10110;SDS011;5095;49.796;9.934;2023-02-19T04:57:49;5.37;;;2.50;;
10110;SDS011;5095;49.796;9.934;2023-02-19T05:00:15;2.93;;;1.93;;
10110;SDS011;5095;49.796;9.934;2023-02-19T05:02:41;2.27;;;2.07;;
10110;SDS011;5095;49.796;9.934;2023-02-19T05:05:07;3.37;;;1.97;;
10110;SDS011;5095;49.796;9.934;2023-02-19T05:07:33;2.57;;;2.13;;
10110;SDS011;5095;49.796;9.934;2023-02-19T05:09:59;2.23;;;1.80;;
10110;SDS011;5095;49.796;9.934;2023-02-19T05:12:25;2.40;;;2.20;;
10110;SDS011;5095;49.796;9.934;2023-02-19T05:14:51;3.37;;;2.43;;
10110;SDS011;5095;49.796;9.934;2023-02-19T05:17:17;2.80;;;2.33;;
10110;SDS011;5095;49.796;9.934;2023-02-19T05:19:43;5.33;;;2.40;;
10110;SDS011;5095;49.796;9.934;2023-02-19T05:22:09;6.23;;;2.70;;
10110;SDS011;5095;49.796;9.934;2023-02-19T05:24:35;2.83;;;2.53;;
10110;SDS011;5095;49.796;9.934;2023-02-19T05:27:01;2.17;;;1.97;;
10110;SDS011;5095;49.796;9.934;2023-02-19T05:29:29;3.63;;;2.40;;
10110;SDS011;5095;49.796;9.934;2023-02-19T05:31:55;2.53;;;2.30;;
10110;SDS011;5095;49.796;9.934;2023-02-19T05:34:21;3.90;;;2.50;;
10110;SDS011;5095;49.796;9.934;2023-02-19T05:36:47;3.37;;;2.60;;
10110;SDS011;5095;49.796;9.934;2023-02-19T05:39:13;5.67;;;2.70;;
10110;SDS011;5095;49.796;9.934;2023-02-19T05:41:39;4.73;;;2.70;;
10110;SDS011;5095;49.796;9.934;2023-02-19T05:44:05;3.13;;;2.37;;
10110;SDS011;5095;49.796;9.934;2023-02-19T05:46:31;4.73;;;2.40;;
10110;SDS011;5095;49.796;9.934;2023-02-19T05:48:57;3.33;;;1.83;;
10110;SDS011;5095;49.796;9.934;2023-02-19T05:51:24;2.50;;;2.30;;
10110;SDS011;5095;49.796;9.934;2023-02-19T05:53:50;2.40;;;2.00;;
10110;SDS011;5095;49.796;9.934;2023-02-19T05:58:46;2.03;;;1.93;;
10110;SDS011;5095;49.796;9.934;2023-02-19T06:01:13;2.27;;;2.03;;
10110;SDS011;5095;49.796;9.934;2023-02-19T06:03:39;2.37;;;2.13;;
10110;SDS011;5095;49.796;9.934;2023-02-19T06:06:05;2.20;;;2.00;;
10110;SDS011;5095;49.796;9.934;2023-02-19T06:08:32;2.77;;;2.40;;
10110;SDS011;5095;49.796;9.934;2023-02-19T06:10:57;2.53;;;1.90;;
10110;SDS011;5095;49.796;9.934;2023-02-19T06:13:23;2.20;;;1.83;;
10110;SDS011;5095;49.796;9.934;2023-02-19T06:15:49;2.10;;;1.63;;
10110;SDS011;5095;49.796;9.934;2023-02-19T06:18:15;1.97;;;1.70;;
10110;SDS011;5095;49.796;9.934;2023-02-19T06:20:41;2.37;;;1.90;;
10110;SDS011;5095;49.796;9.934;2023-02-19T06:23:07;2.07;;;1.60;;
10110;SDS011;5095;49.796;9.934;2023-02-19T06:25:33;1.80;;;1.70;;
10110;SDS011;5095;49.796;9.934;2023-02-19T06:27:59;2.40;;;1.90;;
10110;SDS011;5095;49.796;9.934;2023-02-19T06:30:25;2.10;;;1.83;;
10110;SDS011;5095;49.796;9.934;2023-02-19T06:32:51;1.97;;;1.77;;
10110;SDS011;5095;49.796;9.934;2023-02-19T06:35:18;2.00;;;1.80;;
10110;SDS011;5095;49.796;9.934;2023-02-19T06:37:47;2.20;;;1.90;;
10110;SDS011;5095;49.796;9.934;2023-02-19T06:40:13;1.70;;;1.60;;
10110;SDS011;5095;49.796;9.934;2023-02-19T06:42:39;2.23;;;2.03;;
10110;SDS011;5095;49.796;9.934;2023-02-19T06:45:05;1.83;;;1.67;;
10110;SDS011;5095;49.796;9.934;2023-02-19T06:47:32;2.17;;;1.90;;
10110;SDS011;5095;49.796;9.934;2023-02-19T06:49:58;1.60;;;1.40;;
10110;SDS011;5095;49.796;9.934;2023-02-19T06:52:24;1.60;;;1.50;;
10110;SDS011;5095;49.796;9.934;2023-02-19T06:54:50;1.70;;;1.33;;
10110;SDS011;5095;49.796;9.934;2023-02-19T06:57:16;1.70;;;1.57;;
10110;SDS011;5095;49.796;9.934;2023-02-19T06:59:43;2.63;;;1.50;;
10110;SDS011;5095;49.796;9.934;2023-02-19T07:02:09;1.50;;;1.40;;
10110;SDS011;5095;49.796;9.934;2023-02-19T07:04:36;1.70;;;1.60;;
10110;SDS011;5095;49.796;9.934;2023-02-19T07:07:02;2.13;;;1.80;;
10110;SDS011;5095;49.796;9.934;2023-02-19T07:09:28;1.67;;;1.57;;
10110;SDS011;5095;49.796;9.934;2023-02-19T07:11:55;1.40;;;1.30;;
10110;SDS011;5095;49.796;9.934;2023-02-19T07:14:21;1.70;;;1.57;;
10110;SDS011;5095;49.796;9.934;2023-02-19T07:16:47;2.20;;;1.77;;
10110;SDS011;5095;49.796;9.934;2023-02-19T07:19:14;1.60;;;1.50;;
10110;SDS011;5095;49.796;9.934;2023-02-19T07:21:40;1.60;;;1.50;;
10110;SDS011;5095;49.796;9.934;2023-02-19T07:24:07;2.10;;;1.70;;
10110;SDS011;5095;49.796;9.934;2023-02-19T07:26:34;1.33;;;1.23;;
10110;SDS011;5095;49.796;9.934;2023-02-19T07:29:00;1.87;;;1.57;;
10110;SDS011;5095;49.796;9.934;2023-02-19T07:31:26;2.60;;;1.77;;
10110;SDS011;5095;49.796;9.934;2023-02-19T07:33:52;1.47;;;1.23;;
10110;SDS011;5095;49.796;9.934;2023-02-19T07:36:19;2.10;;;1.90;;
10110;SDS011;5095;49.796;9.934;2023-02-19T07:38:45;1.27;;;1.17;;
10110;SDS011;5095;49.796;9.934;2023-02-19T07:41:12;1.37;;;1.23;;
10110;SDS011;5095;49.796;9.934;2023-02-19T07:43:38;4.37;;;1.50;;
10110;SDS011;5095;49.796;9.934;2023-02-19T07:46:05;2.07;;;1.43;;
10110;SDS011;5095;49.796;9.934;2023-02-19T07:48:31;1.47;;;1.37;;
10110;SDS011;5095;49.796;9.934;2023-02-19T07:51:00;1.60;;;1.33;;
10110;SDS011;5095;49.796;9.934;2023-02-19T07:53:26;3.63;;;1.63;;
10110;SDS011;5095;49.796;9.934;2023-02-19T07:55:52;2.10;;;1.47;;
10110;SDS011;5095;49.796;9.934;2023-02-19T07:58:18;1.53;;;1.43;;
10110;SDS011;5095;49.796;9.934;2023-02-19T08:00:44;1.60;;;1.50;;
10110;SDS011;5095;49.796;9.934;2023-02-19T08:03:10;1.97;;;1.50;;
10110;SDS011;5095;49.796;9.934;2023-02-19T08:05:37;1.30;;;1.20;;
10110;SDS011;5095;49.796;9.934;2023-02-19T08:08:04;1.80;;;1.20;;
10110;SDS011;5095;49.796;9.934;2023-02-19T08:10:30;2.53;;;1.30;;
10110;SDS011;5095;49.796;9.934;2023-02-19T08:13:15;1.87;;;1.37;;
10110;SDS011;5095;49.796;9.934;2023-02-19T08:15:49;1.87;;;1.47;;
10110;SDS011;5095;49.796;9.934;2023-02-19T08:18:16;2.53;;;1.50;;
10110;SDS011;5095;49.796;9.934;2023-02-19T08:20:42;2.07;;;1.30;;
10110;SDS011;5095;49.796;9.934;2023-02-19T08:23:08;2.53;;;1.40;;
10110;SDS011;5095;49.796;9.934;2023-02-19T08:25:35;2.10;;;1.43;;
10110;SDS011;5095;49.796;9.934;2023-02-19T08:28:01;1.57;;;1.40;;
10110;SDS011;5095;49.796;9.934;2023-02-19T08:30:27;1.67;;;1.40;;
10110;SDS011;5095;49.796;9.934;2023-02-19T08:32:54;2.00;;;1.73;;
10110;SDS011;5095;49.796;9.934;2023-02-19T08:35:20;2.33;;;1.63;;
10110;SDS011;5095;49.796;9.934;2023-02-19T08:37:46;1.50;;;1.30;;
10110;SDS011;5095;49.796;9.934;2023-02-19T08:40:12;2.17;;;1.60;;
10110;SDS011;5095;49.796;9.934;2023-02-19T08:42:38;2.67;;;1.20;;
10110;SDS011;5095;49.796;9.934;2023-02-19T08:45:04;4.03;;;1.90;;
10110;SDS011;5095;49.796;9.934;2023-02-19T08:47:31;2.77;;;1.40;;
10110;SDS011;5095;49.796;9.934;2023-02-19T08:49:59;3.23;;;1.60;;
10110;SDS011;5095;49.796;9.934;2023-02-19T08:52:25;2.63;;;1.60;;
10110;SDS011;5095;49.796;9.934;2023-02-19T08:54:51;3.13;;;1.63;;
10110;SDS011;5095;49.796;9.934;2023-02-19T08:57:17;2.10;;;1.50;;
10110;SDS011;5095;49.796;9.934;2023-02-19T08:59:43;2.30;;;1.73;;
10110;SDS011;5095;49.796;9.934;2023-02-19T09:02:12;2.50;;;1.40;;
10110;SDS011;5095;49.796;9.934;2023-02-19T09:04:38;3.07;;;1.50;;
10110;SDS011;5095;49.796;9.934;2023-02-19T09:07:04;2.97;;;1.53;;
10110;SDS011;5095;49.796;9.934;2023-02-19T09:09:37;2.17;;;1.60;;
10110;SDS011;5095;49.796;9.934;2023-02-19T09:12:07;3.57;;;1.50;;
10110;SDS011;5095;49.796;9.934;2023-02-19T09:14:34;4.30;;;1.47;;
10110;SDS011;5095;49.796;9.934;2023-02-19T09:17:00;2.13;;;1.37;;
10110;SDS011;5095;49.796;9.934;2023-02-19T09:19:27;2.97;;;1.53;;
10110;SDS011;5095;49.796;9.934;2023-02-19T09:21:53;2.13;;;1.33;;
10110;SDS011;5095;49.796;9.934;2023-02-19T09:24:19;2.83;;;1.80;;
10110;SDS011;5095;49.796;9.934;2023-02-19T09:26:52;2.00;;;1.50;;
10110;SDS011;5095;49.796;9.934;2023-02-19T09:29:18;3.27;;;1.47;;
10110;SDS011;5095;49.796;9.934;2023-02-19T09:31:44;2.87;;;1.63;;
10110;SDS011;5095;49.796;9.934;2023-02-19T09:34:10;4.37;;;1.80;;
10110;SDS011;5095;49.796;9.934;2023-02-19T09:36:37;2.27;;;1.40;;
10110;SDS011;5095;49.796;9.934;2023-02-19T09:39:03;2.93;;;1.97;;
10110;SDS011;5095;49.796;9.934;2023-02-19T09:41:31;2.87;;;1.70;;
10110;SDS011;5095;49.796;9.934;2023-02-19T09:43:58;4.80;;;1.80;;
10110;SDS011;5095;49.796;9.934;2023-02-19T09:46:32;1.47;;;1.13;;
10110;SDS011;5095;49.796;9.934;2023-02-19T09:49:06;3.00;;;1.40;;
10110;SDS011;5095;49.796;9.934;2023-02-19T09:51:36;4.07;;;1.77;;
10110;SDS011;5095;49.796;9.934;2023-02-19T09:54:05;2.73;;;1.57;;
10110;SDS011;5095;49.796;9.934;2023-02-19T09:56:31;3.93;;;1.60;;
10110;SDS011;5095;49.796;9.934;2023-02-19T09:58:57;3.93;;;1.67;;
10110;SDS011;5095;49.796;9.934;2023-02-19T10:01:25;3.27;;;1.60;;
10110;SDS011;5095;49.796;9.934;2023-02-19T10:03:51;4.73;;;1.60;;
10110;SDS011;5095;49.796;9.934;2023-02-19T10:06:25;4.40;;;1.50;;
10110;SDS011;5095;49.796;9.934;2023-02-19T10:08:52;6.60;;;2.43;;
10110;SDS011;5095;49.796;9.934;2023-02-19T10:11:19;2.93;;;1.60;;
10110;SDS011;5095;49.796;9.934;2023-02-19T10:13:48;3.20;;;1.70;;
10110;SDS011;5095;49.796;9.934;2023-02-19T10:16:16;6.43;;;2.97;;
10110;SDS011;5095;49.796;9.934;2023-02-19T10:18:44;4.97;;;2.40;;
10110;SDS011;5095;49.796;9.934;2023-02-19T10:21:12;3.43;;;1.73;;
10110;SDS011;5095;49.796;9.934;2023-02-19T10:23:39;4.10;;;1.67;;
10110;SDS011;5095;49.796;9.934;2023-02-19T10:26:05;2.73;;;1.63;;
10110;SDS011;5095;49.796;9.934;2023-02-19T10:28:32;3.10;;;1.90;;
10110;SDS011;5095;49.796;9.934;2023-02-19T10:31:00;6.20;;;2.53;;
10110;SDS011;5095;49.796;9.934;2023-02-19T10:33:26;4.00;;;1.47;;
10110;SDS011;5095;49.796;9.934;2023-02-19T10:35:59;1.97;;;1.40;;
10110;SDS011;5095;49.796;9.934;2023-02-19T10:38:27;4.57;;;2.37;;
10110;SDS011;5095;49.796;9.934;2023-02-19T10:43:26;4.87;;;2.43;;
10110;SDS011;5095;49.796;9.934;2023-02-19T10:45:58;4.00;;;2.00;;
10110;SDS011;5095;49.796;9.934;2023-02-19T10:48:27;2.37;;;1.60;;
10110;SDS011;5095;49.796;9.934;2023-02-19T10:50:54;4.47;;;2.43;;
10110;SDS011;5095;49.796;9.934;2023-02-19T10:53:22;6.83;;;1.77;;
10110;SDS011;5095;49.796;9.934;2023-02-19T10:56:05;7.77;;;4.93;;
10110;SDS011;5095;49.796;9.934;2023-02-19T10:58:32;6.57;;;3.30;;
10110;SDS011;5095;49.796;9.934;2023-02-19T11:01:08;3.83;;;2.07;;
10110;SDS011;5095;49.796;9.934;2023-02-19T11:03:35;2.87;;;1.83;;
10110;SDS011;5095;49.796;9.934;2023-02-19T11:06:02;6.50;;;4.10;;
10110;SDS011;5095;49.796;9.934;2023-02-19T11:08:29;14.20;;;8.50;;
10110;SDS011;5095;49.796;9.934;2023-02-19T11:10:55;6.43;;;3.40;;
10110;SDS011;5095;49.796;9.934;2023-02-19T11:13:25;3.97;;;2.10;;
10110;SDS011;5095;49.796;9.934;2023-02-19T11:15:54;4.70;;;2.17;;
10110;SDS011;5095;49.796;9.934;2023-02-19T11:18:22;6.83;;;4.57;;
10110;SDS011;5095;49.796;9.934;2023-02-19T11:20:50;4.07;;;2.63;;
10110;SDS011;5095;49.796;9.934;2023-02-19T11:23:21;6.33;;;2.47;;
10110;SDS011;5095;49.796;9.934;2023-02-19T11:25:48;8.03;;;3.90;;
10110;SDS011;5095;49.796;9.934;2023-02-19T11:30:44;3.03;;;1.90;;
10110;SDS011;5095;49.796;9.934;2023-02-19T11:33:18;7.63;;;4.17;;
10110;SDS011;5095;49.796;9.934;2023-02-19T11:35:49;6.13;;;3.10;;
10110;SDS011;5095;49.796;9.934;2023-02-19T11:38:16;6.40;;;2.43;;
10110;SDS011;5095;49.796;9.934;2023-02-19T11:40:44;13.50;;;8.37;;
10110;SDS011;5095;49.796;9.934;2023-02-19T11:45:45;4.17;;;2.30;;
10110;SDS011;5095;49.796;9.934;2023-02-19T11:51:12;3.57;;;2.00;;
10110;SDS011;5095;49.796;9.934;2023-02-19T11:53:45;3.70;;;2.20;;
10110;SDS011;5095;49.796;9.934;2023-02-19T12:01:10;3.00;;;2.20;;
10110;SDS011;5095;49.796;9.934;2023-02-19T12:06:29;6.20;;;1.70;;
10110;SDS011;5095;49.796;9.934;2023-02-19T12:09:17;3.27;;;1.90;;
10110;SDS011;5095;49.796;9.934;2023-02-19T12:24:57;1.43;;;1.20;;
10110;SDS011;5095;49.796;9.934;2023-02-19T12:28:04;2.83;;;2.10;;
10110;SDS011;5095;49.796;9.934;2023-02-19T12:30:24;3.60;;;2.53;;
10110;SDS011;5095;49.796;9.934;2023-02-19T12:33:12;2.77;;;1.70;;
10110;SDS011;5095;49.796;9.934;2023-02-19T12:38:31;5.97;;;2.80;;
10110;SDS011;5095;49.796;9.934;2023-02-19T12:43:45;23.47;;;6.77;;
10110;SDS011;5095;49.796;9.934;2023-02-19T12:46:17;10.50;;;3.73;;
10110;SDS011;5095;49.796;9.934;2023-02-19T12:48:47;3.17;;;1.80;;
10110;SDS011;5095;49.796;9.934;2023-02-19T12:51:27;4.70;;;2.47;;
10110;SDS011;5095;49.796;9.934;2023-02-19T12:54:04;2.17;;;1.80;;
10110;SDS011;5095;49.796;9.934;2023-02-19T12:56:52;2.50;;;1.60;;
10110;SDS011;5095;49.796;9.934;2023-02-19T12:59:28;3.50;;;1.67;;
10110;SDS011;5095;49.796;9.934;2023-02-19T13:07:02;6.07;;;3.20;;
10110;SDS011;5095;49.796;9.934;2023-02-19T13:09:32;3.97;;;2.10;;
10110;SDS011;5095;49.796;9.934;2023-02-19T13:12:04;3.20;;;2.03;;
10110;SDS011;5095;49.796;9.934;2023-02-19T13:14:41;5.87;;;2.27;;
10110;SDS011;5095;49.796;9.934;2023-02-19T13:17:21;3.67;;;2.13;;
10110;SDS011;5095;49.796;9.934;2023-02-19T13:19:49;4.50;;;2.77;;
10110;SDS011;5095;49.796;9.934;2023-02-19T13:25:01;6.80;;;2.53;;
10110;SDS011;5095;49.796;9.934;2023-02-19T13:32:56;5.93;;;2.57;;
10110;SDS011;5095;49.796;9.934;2023-02-19T13:35:25;5.30;;;2.57;;
10110;SDS011;5095;49.796;9.934;2023-02-19T13:37:53;5.77;;;2.73;;
10110;SDS011;5095;49.796;9.934;2023-02-19T13:40:30;6.40;;;2.73;;
10110;SDS011;5095;49.796;9.934;2023-02-19T13:42:57;4.10;;;2.47;;
10110;SDS011;5095;49.796;9.934;2023-02-19T13:45:34;3.90;;;2.23;;
10110;SDS011;5095;49.796;9.934;2023-02-19T13:48:11;10.13;;;3.77;;
10110;SDS011;5095;49.796;9.934;2023-02-19T13:50:38;14.13;;;7.37;;
10110;SDS011;5095;49.796;9.934;2023-02-19T13:55:49;5.23;;;2.97;;
10110;SDS011;5095;49.796;9.934;2023-02-19T14:01:02;4.70;;;2.30;;
10110;SDS011;5095;49.796;9.934;2023-02-19T14:03:29;6.07;;;2.50;;
10110;SDS011;5095;49.796;9.934;2023-02-19T14:06:05;5.17;;;2.27;;
10110;SDS011;5095;49.796;9.934;2023-02-19T14:16:59;4.67;;;2.17;;
10110;SDS011;5095;49.796;9.934;2023-02-19T14:19:48;6.87;;;2.20;;
10110;SDS011;5095;49.796;9.934;2023-02-19T14:24:59;8.10;;;3.27;;
10110;SDS011;5095;49.796;9.934;2023-02-19T14:27:25;5.83;;;2.90;;
10110;SDS011;5095;49.796;9.934;2023-02-19T14:29:51;5.37;;;2.43;;
10110;SDS011;5095;49.796;9.934;2023-02-19T14:32:18;5.27;;;2.77;;
10110;SDS011;5095;49.796;9.934;2023-02-19T14:34:44;5.57;;;2.40;;
10110;SDS011;5095;49.796;9.934;2023-02-19T14:37:18;5.03;;;2.73;;
10110;SDS011;5095;49.796;9.934;2023-02-19T14:39:45;4.50;;;2.20;;
10110;SDS011;5095;49.796;9.934;2023-02-19T14:42:15;4.70;;;2.43;;
10110;SDS011;5095;49.796;9.934;2023-02-19T14:44:46;5.70;;;2.30;;
10110;SDS011;5095;49.796;9.934;2023-02-19T14:47:14;4.27;;;2.63;;
10110;SDS011;5095;49.796;9.934;2023-02-19T14:54:43;3.57;;;2.10;;
10110;SDS011;5095;49.796;9.934;2023-02-19T14:57:20;10.60;;;5.73;;
10110;SDS011;5095;49.796;9.934;2023-02-19T14:59:54;5.13;;;2.80;;
10110;SDS011;5095;49.796;9.934;2023-02-19T15:02:21;6.23;;;2.50;;
10110;SDS011;5095;49.796;9.934;2023-02-19T15:04:49;5.43;;;2.30;;
10110;SDS011;5095;49.796;9.934;2023-02-19T15:07:17;9.20;;;2.30;;
10110;SDS011;5095;49.796;9.934;2023-02-19T15:09:46;6.80;;;2.67;;
10110;SDS011;5095;49.796;9.934;2023-02-19T15:12:17;6.80;;;3.13;;
10110;SDS011;5095;49.796;9.934;2023-02-19T15:14:44;7.47;;;2.43;;
10110;SDS011;5095;49.796;9.934;2023-02-19T15:17:12;3.93;;;2.03;;
10110;SDS011;5095;49.796;9.934;2023-02-19T15:19:40;5.73;;;2.10;;
10110;SDS011;5095;49.796;9.934;2023-02-19T15:22:11;5.37;;;2.80;;
10110;SDS011;5095;49.796;9.934;2023-02-19T15:24:42;9.50;;;3.77;;
10110;SDS011;5095;49.796;9.934;2023-02-19T15:27:16;8.30;;;3.83;;
10110;SDS011;5095;49.796;9.934;2023-02-19T15:29:44;3.83;;;2.23;;
10110;SDS011;5095;49.796;9.934;2023-02-19T15:32:49;5.60;;;2.57;;
10110;SDS011;5095;49.796;9.934;2023-02-19T15:35:03;5.53;;;2.13;;
10110;SDS011;5095;49.796;9.934;2023-02-19T15:37:30;5.57;;;2.47;;
10110;SDS011;5095;49.796;9.934;2023-02-19T15:39:57;13.40;;;5.60;;
10110;SDS011;5095;49.796;9.934;2023-02-19T15:42:25;5.90;;;2.67;;
10110;SDS011;5095;49.796;9.934;2023-02-19T15:47:23;5.53;;;2.50;;
10110;SDS011;5095;49.796;9.934;2023-02-19T15:52:19;9.63;;;3.17;;
10110;SDS011;5095;49.796;9.934;2023-02-19T15:54:54;5.13;;;2.87;;
10110;SDS011;5095;49.796;9.934;2023-02-19T15:57:23;8.37;;;2.80;;
10110;SDS011;5095;49.796;9.934;2023-02-19T15:59:54;9.80;;;3.07;;
10110;SDS011;5095;49.796;9.934;2023-02-19T16:02:22;5.40;;;2.83;;
10110;SDS011;5095;49.796;9.934;2023-02-19T16:04:48;3.67;;;2.33;;
10110;SDS011;5095;49.796;9.934;2023-02-19T16:10:02;5.80;;;3.03;;
10110;SDS011;5095;49.796;9.934;2023-02-19T16:12:29;5.37;;;2.20;;
10110;SDS011;5095;49.796;9.934;2023-02-19T16:14:55;6.73;;;2.60;;
10110;SDS011;5095;49.796;9.934;2023-02-19T16:17:21;12.30;;;3.50;;
10110;SDS011;5095;49.796;9.934;2023-02-19T16:19:58;8.77;;;2.93;;
10110;SDS011;5095;49.796;9.934;2023-02-19T16:22:29;6.13;;;2.53;;
10110;SDS011;5095;49.796;9.934;2023-02-19T16:24:59;3.33;;;1.77;;
10110;SDS011;5095;49.796;9.934;2023-02-19T16:29:52;4.47;;;2.53;;
10110;SDS011;5095;49.796;9.934;2023-02-19T16:32:18;4.87;;;2.20;;
10110;SDS011;5095;49.796;9.934;2023-02-19T16:34:47;6.13;;;2.47;;
10110;SDS011;5095;49.796;9.934;2023-02-19T16:45:19;6.13;;;2.33;;
10110;SDS011;5095;49.796;9.934;2023-02-19T16:47:45;7.97;;;2.90;;
10110;SDS011;5095;49.796;9.934;2023-02-19T16:50:22;5.37;;;2.13;;
10110;SDS011;5095;49.796;9.934;2023-02-19T16:52:52;7.23;;;3.97;;
10110;SDS011;5095;49.796;9.934;2023-02-19T16:55:18;8.37;;;3.00;;
10110;SDS011;5095;49.796;9.934;2023-02-19T16:57:44;5.37;;;2.20;;
10110;SDS011;5095;49.796;9.934;2023-02-19T17:00:20;5.87;;;2.50;;
10110;SDS011;5095;49.796;9.934;2023-02-19T17:02:47;6.10;;;2.70;;